sensor_id;sensor_type;location;lat;lon;timestamp;pressure;altitude;pressure_sealevel;temperature;humidity
69689;BME280;56932;38.402;-96.176;2023-01-15T00:02:23;97316.46;;;23.01;23.94
69689;BME280;56932;38.402;-96.176;2023-01-15T00:04:51;97315.97;;;21.85;24.20
69689;BME280;56932;38.402;-96.176;2023-01-15T00:07:14;97312.63;;;22.75;23.68
69689;BME280;56932;38.402;-96.176;2023-01-15T00:09:39;97310.42;;;22.29;23.75
69689;BME280;56932;38.402;-96.176;2023-01-15T00:12:05;97311.40;;;22.31;23.93
69689;BME280;56932;38.402;-96.176;2023-01-15T00:14:30;97314.62;;;22.45;23.70
69689;BME280;56932;38.402;-96.176;2023-01-15T00:16:56;97315.66;;;22.71;23.28
69689;BME280;56932;38.402;-96.176;2023-01-15T00:19:21;97311.71;;;22.49;23.16
69689;BME280;56932;38.402;-96.176;2023-01-15T00:21:47;97302.35;;;22.44;22.78
69689;BME280;56932;38.402;-96.176;2023-01-15T00:24:12;97298.49;;;22.87;22.61
69689;BME280;56932;38.402;-96.176;2023-01-15T00:26:38;97303.09;;;23.18;22.12
69689;BME280;56932;38.402;-96.176;2023-01-15T00:29:04;97302.11;;;22.45;22.63
69689;BME280;56932;38.402;-96.176;2023-01-15T00:31:30;97293.76;;;22.49;22.34
69689;BME280;56932;38.402;-96.176;2023-01-15T00:33:55;97287.71;;;22.26;22.22
69689;BME280;56932;38.402;-96.176;2023-01-15T00:36:21;97291.76;;;22.32;22.16
69689;BME280;56932;38.402;-96.176;2023-01-15T00:38:46;97285.82;;;22.52;21.63
69689;BME280;56932;38.402;-96.176;2023-01-15T00:41:11;97290.08;;;23.18;21.29
69689;BME280;56932;38.402;-96.176;2023-01-15T00:43:37;97283.78;;;22.46;21.61
69689;BME280;56932;38.402;-96.176;2023-01-15T00:46:02;97281.97;;;22.76;21.29
69689;BME280;56932;38.402;-96.176;2023-01-15T00:48:28;97283.66;;;22.75;21.09
69689;BME280;56932;38.402;-96.176;2023-01-15T00:50:53;97281.40;;;22.25;21.45
69689;BME280;56932;38.402;-96.176;2023-01-15T00:53:19;97281.21;;;22.26;21.35
69689;BME280;56932;38.402;-96.176;2023-01-15T00:55:45;97290.38;;;22.34;21.22
69689;BME280;56932;38.402;-96.176;2023-01-15T00:58:10;97274.03;;;22.57;21.14
69689;BME280;56932;38.402;-96.176;2023-01-15T01:00:35;97276.24;;;22.31;21.01
69689;BME280;56932;38.402;-96.176;2023-01-15T01:03:01;97270.88;;;22.63;20.66
69689;BME280;56932;38.402;-96.176;2023-01-15T01:05:26;97281.00;;;22.46;20.67
69689;BME280;56932;38.402;-96.176;2023-01-15T01:07:52;97279.51;;;22.52;20.40
69689;BME280;56932;38.402;-96.176;2023-01-15T01:10:17;97272.33;;;21.84;21.18
69689;BME280;56932;38.402;-96.176;2023-01-15T01:12:43;97275.69;;;21.97;20.87
69689;BME280;56932;38.402;-96.176;2023-01-15T01:15:09;97283.96;;;22.23;20.66
69689;BME280;56932;38.402;-96.176;2023-01-15T01:17:35;97279.56;;;22.48;20.52
69689;BME280;56932;38.402;-96.176;2023-01-15T01:19:59;97282.10;;;22.30;20.42
69689;BME280;56932;38.402;-96.176;2023-01-15T01:22:25;97284.04;;;22.48;20.33
69689;BME280;56932;38.402;-96.176;2023-01-15T01:24:51;97294.44;;;22.28;20.35
69689;BME280;56932;38.402;-96.176;2023-01-15T01:27:16;97302.94;;;22.26;20.34
69689;BME280;56932;38.402;-96.176;2023-01-15T01:29:41;97308.23;;;22.30;20.32
69689;BME280;56932;38.402;-96.176;2023-01-15T01:32:07;97304.78;;;21.94;20.54
69689;BME280;56932;38.402;-96.176;2023-01-15T01:34:33;97315.65;;;22.43;20.17
69689;BME280;56932;38.402;-96.176;2023-01-15T01:36:58;97314.52;;;22.36;20.15
69689;BME280;56932;38.402;-96.176;2023-01-15T01:39:24;97316.44;;;21.77;20.45
69689;BME280;56932;38.402;-96.176;2023-01-15T01:41:49;97308.05;;;21.74;20.29
69689;BME280;56932;38.402;-96.176;2023-01-15T01:46:40;97307.52;;;22.24;20.17
69689;BME280;56932;38.402;-96.176;2023-01-15T01:49:10;97309.41;;;21.99;20.24
69689;BME280;56932;38.402;-96.176;2023-01-15T01:51:36;97314.03;;;21.32;20.63
69689;BME280;56932;38.402;-96.176;2023-01-15T01:53:58;97314.88;;;21.41;20.29
69689;BME280;56932;38.402;-96.176;2023-01-15T01:56:22;97311.93;;;21.71;20.23
69689;BME280;56932;38.402;-96.176;2023-01-15T01:58:50;97303.80;;;21.15;20.31
69689;BME280;56932;38.402;-96.176;2023-01-15T02:01:14;97302.28;;;21.73;19.95
69689;BME280;56932;38.402;-96.176;2023-01-15T02:03:39;97301.16;;;20.99;20.44
69689;BME280;56932;38.402;-96.176;2023-01-15T02:06:07;97303.25;;;20.50;20.72
69689;BME280;56932;38.402;-96.176;2023-01-15T02:08:30;97301.31;;;21.37;20.22
69689;BME280;56932;38.402;-96.176;2023-01-15T02:10:56;97303.32;;;21.42;20.15
69689;BME280;56932;38.402;-96.176;2023-01-15T02:13:26;97300.84;;;21.32;20.12
69689;BME280;56932;38.402;-96.176;2023-01-15T02:15:49;97297.55;;;20.64;20.35
69689;BME280;56932;38.402;-96.176;2023-01-15T02:18:17;97292.83;;;21.13;20.12
69689;BME280;56932;38.402;-96.176;2023-01-15T02:20:39;97290.55;;;20.72;20.33
69689;BME280;56932;38.402;-96.176;2023-01-15T02:23:14;97290.38;;;20.81;20.20
69689;BME280;56932;38.402;-96.176;2023-01-15T02:25:35;97287.82;;;20.95;20.02
69689;BME280;56932;38.402;-96.176;2023-01-15T02:27:56;97283.13;;;20.68;20.16
69689;BME280;56932;38.402;-96.176;2023-01-15T02:30:25;97285.35;;;20.84;20.00
69689;BME280;56932;38.402;-96.176;2023-01-15T02:32:50;97281.55;;;20.21;20.22
69689;BME280;56932;38.402;-96.176;2023-01-15T02:35:14;97276.56;;;20.05;20.47
69689;BME280;56932;38.402;-96.176;2023-01-15T02:37:40;97283.15;;;20.56;20.04
69689;BME280;56932;38.402;-96.176;2023-01-15T02:40:03;97283.32;;;20.43;20.09
69689;BME280;56932;38.402;-96.176;2023-01-15T02:42:29;97281.46;;;20.42;20.06
69689;BME280;56932;38.402;-96.176;2023-01-15T02:44:54;97280.37;;;20.46;19.98
69689;BME280;56932;38.402;-96.176;2023-01-15T02:47:23;97279.75;;;19.91;20.51
69689;BME280;56932;38.402;-96.176;2023-01-15T02:49:46;97288.17;;;20.41;20.13
69689;BME280;56932;38.402;-96.176;2023-01-15T02:52:14;97284.74;;;20.11;20.11
69689;BME280;56932;38.402;-96.176;2023-01-15T02:54:40;97292.02;;;20.78;19.90
69689;BME280;56932;38.402;-96.176;2023-01-15T02:57:02;97294.64;;;20.19;20.14
69689;BME280;56932;38.402;-96.176;2023-01-15T02:59:32;97292.86;;;20.22;20.09
69689;BME280;56932;38.402;-96.176;2023-01-15T03:01:55;97288.63;;;19.79;20.22
69689;BME280;56932;38.402;-96.176;2023-01-15T03:04:20;97284.54;;;19.75;20.20
69689;BME280;56932;38.402;-96.176;2023-01-15T03:06:47;97280.43;;;20.28;20.12
69689;BME280;56932;38.402;-96.176;2023-01-15T03:09:08;97281.73;;;20.25;20.08
69689;BME280;56932;38.402;-96.176;2023-01-15T03:11:37;97286.81;;;19.84;19.99
69689;BME280;56932;38.402;-96.176;2023-01-15T03:14:03;97284.37;;;19.97;19.85
69689;BME280;56932;38.402;-96.176;2023-01-15T03:16:30;97282.66;;;19.76;19.97
69689;BME280;56932;38.402;-96.176;2023-01-15T03:18:54;97276.49;;;20.10;19.82
69689;BME280;56932;38.402;-96.176;2023-01-15T03:21:20;97276.05;;;20.13;19.94
69689;BME280;56932;38.402;-96.176;2023-01-15T03:23:45;97274.20;;;19.80;19.79
69689;BME280;56932;38.402;-96.176;2023-01-15T03:26:06;97267.40;;;19.53;19.99
69689;BME280;56932;38.402;-96.176;2023-01-15T03:28:34;97272.97;;;20.05;19.75
69689;BME280;56932;38.402;-96.176;2023-01-15T03:30:58;97266.87;;;19.58;20.07
69689;BME280;56932;38.402;-96.176;2023-01-15T03:33:23;97266.18;;;20.05;19.69
69689;BME280;56932;38.402;-96.176;2023-01-15T03:35:50;97258.26;;;19.71;19.77
69689;BME280;56932;38.402;-96.176;2023-01-15T03:38:16;97256.40;;;19.70;19.89
69689;BME280;56932;38.402;-96.176;2023-01-15T03:40:44;97261.80;;;19.97;19.66
69689;BME280;56932;38.402;-96.176;2023-01-15T03:43:08;97255.15;;;19.67;19.83
69689;BME280;56932;38.402;-96.176;2023-01-15T03:45:32;97247.39;;;19.67;19.81
69689;BME280;56932;38.402;-96.176;2023-01-15T03:48:00;97242.09;;;19.59;19.63
69689;BME280;56932;38.402;-96.176;2023-01-15T03:50:27;97240.05;;;19.83;19.75
69689;BME280;56932;38.402;-96.176;2023-01-15T03:52:51;97243.41;;;19.44;19.68
69689;BME280;56932;38.402;-96.176;2023-01-15T03:55:16;97240.31;;;20.07;19.53
69689;BME280;56932;38.402;-96.176;2023-01-15T03:57:40;97239.41;;;19.66;19.81
69689;BME280;56932;38.402;-96.176;2023-01-15T04:00:08;97238.62;;;19.49;19.72
69689;BME280;56932;38.402;-96.176;2023-01-15T04:02:30;97236.15;;;19.65;19.60
69689;BME280;56932;38.402;-96.176;2023-01-15T04:04:55;97235.33;;;19.38;19.90
69689;BME280;56932;38.402;-96.176;2023-01-15T04:07:20;97232.40;;;19.64;19.67
69689;BME280;56932;38.402;-96.176;2023-01-15T04:09:45;97231.16;;;19.48;19.77
69689;BME280;56932;38.402;-96.176;2023-01-15T04:12:11;97234.88;;;19.76;19.56
69689;BME280;56932;38.402;-96.176;2023-01-15T04:14:36;97235.40;;;19.49;19.71
69689;BME280;56932;38.402;-96.176;2023-01-15T04:17:01;97229.74;;;19.28;19.87
69689;BME280;56932;38.402;-96.176;2023-01-15T04:19:27;97228.05;;;19.42;19.72
69689;BME280;56932;38.402;-96.176;2023-01-15T04:21:52;97227.62;;;19.17;19.52
69689;BME280;56932;38.402;-96.176;2023-01-15T04:24:18;97219.20;;;19.62;19.48
69689;BME280;56932;38.402;-96.176;2023-01-15T04:26:44;97211.29;;;19.37;19.63
69689;BME280;56932;38.402;-96.176;2023-01-15T04:29:09;97206.49;;;19.56;19.43
69689;BME280;56932;38.402;-96.176;2023-01-15T04:31:34;97198.01;;;19.14;19.67
69689;BME280;56932;38.402;-96.176;2023-01-15T04:34:00;97199.71;;;19.54;19.37
69689;BME280;56932;38.402;-96.176;2023-01-15T04:36:26;97201.17;;;19.58;19.34
69689;BME280;56932;38.402;-96.176;2023-01-15T04:38:51;97197.93;;;19.27;19.41
69689;BME280;56932;38.402;-96.176;2023-01-15T04:41:16;97189.80;;;19.26;19.57
69689;BME280;56932;38.402;-96.176;2023-01-15T04:43:42;97182.01;;;18.91;19.77
69689;BME280;56932;38.402;-96.176;2023-01-15T04:46:07;97185.84;;;19.62;19.63
69689;BME280;56932;38.402;-96.176;2023-01-15T04:48:33;97176.96;;;19.14;19.67
69689;BME280;56932;38.402;-96.176;2023-01-15T04:51:02;97163.71;;;18.78;19.93
69689;BME280;56932;38.402;-96.176;2023-01-15T04:53:25;97161.89;;;19.09;19.69
69689;BME280;56932;38.402;-96.176;2023-01-15T04:55:49;97164.06;;;19.13;19.64
69689;BME280;56932;38.402;-96.176;2023-01-15T04:58:15;97164.16;;;19.62;19.50
69689;BME280;56932;38.402;-96.176;2023-01-15T05:00:41;97164.07;;;19.09;19.66
69689;BME280;56932;38.402;-96.176;2023-01-15T05:03:06;97163.56;;;18.58;20.25
69689;BME280;56932;38.402;-96.176;2023-01-15T05:05:32;97161.22;;;19.44;19.78
69689;BME280;56932;38.402;-96.176;2023-01-15T05:07:57;97161.68;;;18.94;19.73
69689;BME280;56932;38.402;-96.176;2023-01-15T05:10:23;97157.79;;;18.97;19.87
69689;BME280;56932;38.402;-96.176;2023-01-15T05:12:49;97151.94;;;19.00;19.60
69689;BME280;56932;38.402;-96.176;2023-01-15T05:15:15;97146.59;;;18.92;19.66
69689;BME280;56932;38.402;-96.176;2023-01-15T05:17:40;97140.94;;;18.54;20.06
69689;BME280;56932;38.402;-96.176;2023-01-15T05:20:07;97141.46;;;18.73;19.77
69689;BME280;56932;38.402;-96.176;2023-01-15T05:22:31;97148.11;;;19.24;19.59
69689;BME280;56932;38.402;-96.176;2023-01-15T05:24:57;97146.50;;;17.95;20.70
69689;BME280;56932;38.402;-96.176;2023-01-15T05:27:22;97146.26;;;19.33;19.41
69689;BME280;56932;38.402;-96.176;2023-01-15T05:29:48;97144.38;;;18.38;19.93
69689;BME280;56932;38.402;-96.176;2023-01-15T05:32:14;97142.05;;;18.79;19.93
69689;BME280;56932;38.402;-96.176;2023-01-15T05:34:39;97141.26;;;18.66;20.06
69689;BME280;56932;38.402;-96.176;2023-01-15T05:37:04;97140.20;;;18.28;20.43
69689;BME280;56932;38.402;-96.176;2023-01-15T05:39:30;97148.96;;;18.27;20.71
69689;BME280;56932;38.402;-96.176;2023-01-15T05:41:55;97150.40;;;18.24;20.47
69689;BME280;56932;38.402;-96.176;2023-01-15T05:44:23;97142.73;;;18.18;20.72
69689;BME280;56932;38.402;-96.176;2023-01-15T05:46:47;97134.61;;;17.97;21.00
69689;BME280;56932;38.402;-96.176;2023-01-15T05:49:13;97126.64;;;18.53;20.80
69689;BME280;56932;38.402;-96.176;2023-01-15T05:51:38;97121.44;;;18.21;20.94
69689;BME280;56932;38.402;-96.176;2023-01-15T05:54:03;97119.78;;;18.90;20.64
69689;BME280;56932;38.402;-96.176;2023-01-15T05:56:28;97125.56;;;18.69;20.66
69689;BME280;56932;38.402;-96.176;2023-01-15T05:58:54;97121.71;;;18.53;20.49
69689;BME280;56932;38.402;-96.176;2023-01-15T06:01:20;97121.68;;;18.72;20.63
69689;BME280;56932;38.402;-96.176;2023-01-15T06:03:46;97120.72;;;19.15;20.47
69689;BME280;56932;38.402;-96.176;2023-01-15T06:06:13;97115.16;;;19.34;19.96
69689;BME280;56932;38.402;-96.176;2023-01-15T06:08:36;97110.03;;;19.09;20.16
69689;BME280;56932;38.402;-96.176;2023-01-15T06:11:02;97103.67;;;19.92;19.59
69689;BME280;56932;38.402;-96.176;2023-01-15T06:13:27;97105.33;;;19.31;20.21
69689;BME280;56932;38.402;-96.176;2023-01-15T06:15:53;97109.48;;;18.71;20.50
69689;BME280;56932;38.402;-96.176;2023-01-15T06:18:19;97109.69;;;19.31;20.35
69689;BME280;56932;38.402;-96.176;2023-01-15T06:20:44;97103.94;;;19.01;20.58
69689;BME280;56932;38.402;-96.176;2023-01-15T06:23:09;97100.51;;;19.15;20.34
69689;BME280;56932;38.402;-96.176;2023-01-15T06:25:35;97094.99;;;19.36;20.13
69689;BME280;56932;38.402;-96.176;2023-01-15T06:28:00;97084.36;;;18.76;20.67
69689;BME280;56932;38.402;-96.176;2023-01-15T06:30:26;97085.37;;;18.94;20.50
69689;BME280;56932;38.402;-96.176;2023-01-15T06:32:51;97075.28;;;19.13;20.14
69689;BME280;56932;38.402;-96.176;2023-01-15T06:35:17;97077.37;;;19.30;20.27
69689;BME280;56932;38.402;-96.176;2023-01-15T06:37:42;97078.88;;;19.68;19.94
69689;BME280;56932;38.402;-96.176;2023-01-15T06:40:09;97074.83;;;19.26;20.31
69689;BME280;56932;38.402;-96.176;2023-01-15T06:42:34;97074.88;;;20.61;19.26
69689;BME280;56932;38.402;-96.176;2023-01-15T06:44:59;97070.87;;;19.68;19.98
69689;BME280;56932;38.402;-96.176;2023-01-15T06:47:24;97065.86;;;19.90;19.67
69689;BME280;56932;38.402;-96.176;2023-01-15T06:49:52;97061.84;;;20.52;19.04
69689;BME280;56932;38.402;-96.176;2023-01-15T06:52:15;97064.44;;;20.91;19.11
69689;BME280;56932;38.402;-96.176;2023-01-15T06:54:41;97063.14;;;19.72;19.92
69689;BME280;56932;38.402;-96.176;2023-01-15T06:57:06;97063.47;;;20.30;19.34
69689;BME280;56932;38.402;-96.176;2023-01-15T06:59:32;97063.13;;;19.83;19.86
69689;BME280;56932;38.402;-96.176;2023-01-15T07:01:58;97058.77;;;20.57;19.10
69689;BME280;56932;38.402;-96.176;2023-01-15T07:04:23;97049.09;;;21.16;18.82
69689;BME280;56932;38.402;-96.176;2023-01-15T07:06:49;97026.60;;;20.48;18.97
69689;BME280;56932;38.402;-96.176;2023-01-15T07:09:14;97027.03;;;20.88;19.03
69689;BME280;56932;38.402;-96.176;2023-01-15T07:11:40;97024.09;;;21.09;18.86
69689;BME280;56932;38.402;-96.176;2023-01-15T07:14:06;97023.08;;;20.98;18.77
69689;BME280;56932;38.402;-96.176;2023-01-15T07:16:31;97010.53;;;21.12;18.85
69689;BME280;56932;38.402;-96.176;2023-01-15T07:18:57;97004.47;;;21.23;18.77
69689;BME280;56932;38.402;-96.176;2023-01-15T07:21:22;97001.99;;;20.85;18.85
69689;BME280;56932;38.402;-96.176;2023-01-15T07:23:48;96995.56;;;20.60;18.84
69689;BME280;56932;38.402;-96.176;2023-01-15T07:26:14;96989.07;;;21.04;18.86
69689;BME280;56932;38.402;-96.176;2023-01-15T07:28:39;96977.75;;;20.77;18.83
69689;BME280;56932;38.402;-96.176;2023-01-15T07:31:04;96975.55;;;20.93;18.74
69689;BME280;56932;38.402;-96.176;2023-01-15T07:33:30;96981.23;;;20.89;18.93
69689;BME280;56932;38.402;-96.176;2023-01-15T07:35:55;96972.14;;;20.68;19.03
69689;BME280;56932;38.402;-96.176;2023-01-15T07:38:21;96968.80;;;20.83;18.90
69689;BME280;56932;38.402;-96.176;2023-01-15T07:40:46;96954.08;;;20.81;18.92
69689;BME280;56932;38.402;-96.176;2023-01-15T07:43:12;96949.71;;;20.54;18.89
69689;BME280;56932;38.402;-96.176;2023-01-15T07:45:38;96937.80;;;20.07;19.20
69689;BME280;56932;38.402;-96.176;2023-01-15T07:48:04;96930.06;;;20.69;18.91
69689;BME280;56932;38.402;-96.176;2023-01-15T07:50:28;96926.11;;;20.81;18.83
69689;BME280;56932;38.402;-96.176;2023-01-15T07:52:54;96937.64;;;20.32;19.00
69689;BME280;56932;38.402;-96.176;2023-01-15T07:55:20;96934.90;;;20.67;19.11
69689;BME280;56932;38.402;-96.176;2023-01-15T07:57:46;96940.23;;;20.46;19.09
69689;BME280;56932;38.402;-96.176;2023-01-15T08:00:13;96927.32;;;20.38;19.10
69689;BME280;56932;38.402;-96.176;2023-01-15T08:02:36;96917.21;;;19.78;19.55
69689;BME280;56932;38.402;-96.176;2023-01-15T08:05:02;96915.15;;;20.28;19.21
69689;BME280;56932;38.402;-96.176;2023-01-15T08:07:27;96917.46;;;20.40;19.10
69689;BME280;56932;38.402;-96.176;2023-01-15T08:09:53;96908.49;;;20.19;19.26
69689;BME280;56932;38.402;-96.176;2023-01-15T08:12:18;96917.64;;;20.68;19.04
69689;BME280;56932;38.402;-96.176;2023-01-15T08:14:44;96914.01;;;19.81;19.53
69689;BME280;56932;38.402;-96.176;2023-01-15T08:17:09;96912.57;;;20.75;19.18
69689;BME280;56932;38.402;-96.176;2023-01-15T08:19:35;96911.90;;;20.34;19.12
69689;BME280;56932;38.402;-96.176;2023-01-15T08:22:00;96910.90;;;19.99;19.36
69689;BME280;56932;38.402;-96.176;2023-01-15T08:24:26;96903.96;;;20.32;19.12
69689;BME280;56932;38.402;-96.176;2023-01-15T08:26:52;96906.69;;;19.67;19.70
69689;BME280;56932;38.402;-96.176;2023-01-15T08:29:17;96900.98;;;19.97;19.34
69689;BME280;56932;38.402;-96.176;2023-01-15T08:31:43;96900.96;;;19.98;19.34
69689;BME280;56932;38.402;-96.176;2023-01-15T08:34:09;96895.61;;;20.14;19.19
69689;BME280;56932;38.402;-96.176;2023-01-15T08:36:34;96900.74;;;20.38;19.18
69689;BME280;56932;38.402;-96.176;2023-01-15T08:38:59;96894.63;;;20.11;19.20
69689;BME280;56932;38.402;-96.176;2023-01-15T08:41:25;96885.49;;;20.33;19.36
69689;BME280;56932;38.402;-96.176;2023-01-15T08:43:50;96879.23;;;20.03;19.27
69689;BME280;56932;38.402;-96.176;2023-01-15T08:46:16;96876.18;;;19.73;19.43
69689;BME280;56932;38.402;-96.176;2023-01-15T08:48:41;96878.61;;;20.04;19.20
69689;BME280;56932;38.402;-96.176;2023-01-15T08:51:08;96879.93;;;19.88;19.29
69689;BME280;56932;38.402;-96.176;2023-01-15T08:53:32;96871.16;;;20.10;19.31
69689;BME280;56932;38.402;-96.176;2023-01-15T08:55:58;96871.16;;;19.73;19.40
69689;BME280;56932;38.402;-96.176;2023-01-15T08:58:26;96868.20;;;20.48;19.05
69689;BME280;56932;38.402;-96.176;2023-01-15T09:00:49;96875.09;;;19.75;19.17
69689;BME280;56932;38.402;-96.176;2023-01-15T09:03:15;96864.44;;;19.87;19.27
69689;BME280;56932;38.402;-96.176;2023-01-15T09:05:40;96857.86;;;20.01;19.14
69689;BME280;56932;38.402;-96.176;2023-01-15T09:08:06;96853.13;;;20.51;19.08
69689;BME280;56932;38.402;-96.176;2023-01-15T09:10:31;96851.01;;;19.55;19.74
69689;BME280;56932;38.402;-96.176;2023-01-15T09:12:58;96847.24;;;19.70;19.49
69689;BME280;56932;38.402;-96.176;2023-01-15T09:15:22;96846.49;;;19.92;19.29
69689;BME280;56932;38.402;-96.176;2023-01-15T09:17:48;96847.05;;;19.74;19.25
69689;BME280;56932;38.402;-96.176;2023-01-15T09:20:13;96838.79;;;20.33;19.10
69689;BME280;56932;38.402;-96.176;2023-01-15T09:22:39;96835.95;;;19.68;19.25
69689;BME280;56932;38.402;-96.176;2023-01-15T09:25:05;96834.61;;;19.66;19.24
69689;BME280;56932;38.402;-96.176;2023-01-15T09:27:30;96825.40;;;19.87;19.22
69689;BME280;56932;38.402;-96.176;2023-01-15T09:29:56;96821.93;;;19.85;19.24
69689;BME280;56932;38.402;-96.176;2023-01-15T09:32:21;96816.20;;;19.64;19.34
69689;BME280;56932;38.402;-96.176;2023-01-15T09:34:47;96813.05;;;19.55;19.26
69689;BME280;56932;38.402;-96.176;2023-01-15T09:37:12;96814.42;;;19.81;19.20
69689;BME280;56932;38.402;-96.176;2023-01-15T09:39:39;96816.66;;;19.53;19.36
69689;BME280;56932;38.402;-96.176;2023-01-15T09:42:14;96807.24;;;19.78;19.17
69689;BME280;56932;38.402;-96.176;2023-01-15T09:44:36;96800.42;;;19.80;19.17
69689;BME280;56932;38.402;-96.176;2023-01-15T09:47:03;96801.87;;;19.48;19.21
69689;BME280;56932;38.402;-96.176;2023-01-15T09:49:29;96800.22;;;19.35;19.60
69689;BME280;56932;38.402;-96.176;2023-01-15T09:51:50;96798.85;;;19.55;19.31
69689;BME280;56932;38.402;-96.176;2023-01-15T09:54:19;96799.49;;;19.56;19.29
69689;BME280;56932;38.402;-96.176;2023-01-15T09:56:37;96794.67;;;19.59;19.49
69689;BME280;56932;38.402;-96.176;2023-01-15T09:59:10;96796.08;;;19.35;19.27
69689;BME280;56932;38.402;-96.176;2023-01-15T10:01:30;96776.84;;;19.64;19.23
69689;BME280;56932;38.402;-96.176;2023-01-15T10:03:58;96763.09;;;19.32;19.44
69689;BME280;56932;38.402;-96.176;2023-01-15T10:06:21;96760.56;;;19.54;19.33
69689;BME280;56932;38.402;-96.176;2023-01-15T10:08:46;96769.06;;;19.50;19.52
69689;BME280;56932;38.402;-96.176;2023-01-15T10:11:21;96781.61;;;19.40;19.43
69689;BME280;56932;38.402;-96.176;2023-01-15T10:13:40;96778.30;;;19.17;19.60
69689;BME280;56932;38.402;-96.176;2023-01-15T10:16:00;96782.31;;;19.66;19.27
69689;BME280;56932;38.402;-96.176;2023-01-15T10:18:27;96781.80;;;19.75;19.33
69689;BME280;56932;38.402;-96.176;2023-01-15T10:21:04;96779.58;;;19.48;19.56
69689;BME280;56932;38.402;-96.176;2023-01-15T10:23:31;96772.70;;;19.62;19.47
69689;BME280;56932;38.402;-96.176;2023-01-15T10:25:48;96766.21;;;19.61;19.42
69689;BME280;56932;38.402;-96.176;2023-01-15T10:28:16;96761.51;;;18.73;20.08
69689;BME280;56932;38.402;-96.176;2023-01-15T10:30:39;96754.88;;;19.34;19.45
69689;BME280;56932;38.402;-96.176;2023-01-15T10:33:04;96760.20;;;19.17;19.56
69689;BME280;56932;38.402;-96.176;2023-01-15T10:35:34;96756.10;;;19.61;19.42
69689;BME280;56932;38.402;-96.176;2023-01-15T10:37:55;96756.99;;;19.02;19.71
69689;BME280;56932;38.402;-96.176;2023-01-15T10:40:26;96759.30;;;19.79;19.14
69689;BME280;56932;38.402;-96.176;2023-01-15T10:42:49;96758.01;;;19.67;19.24
69689;BME280;56932;38.402;-96.176;2023-01-15T10:45:11;96749.71;;;19.50;19.54
69689;BME280;56932;38.402;-96.176;2023-01-15T10:47:35;96749.94;;;18.85;19.87
69689;BME280;56932;38.402;-96.176;2023-01-15T10:49:58;96744.48;;;18.79;20.13
69689;BME280;56932;38.402;-96.176;2023-01-15T10:52:28;96747.43;;;18.64;20.28
69689;BME280;56932;38.402;-96.176;2023-01-15T10:54:52;96751.68;;;17.96;20.57
69689;BME280;56932;38.402;-96.176;2023-01-15T10:57:19;96747.04;;;18.22;20.82
69689;BME280;56932;38.402;-96.176;2023-01-15T10:59:43;96745.41;;;18.88;20.40
69689;BME280;56932;38.402;-96.176;2023-01-15T11:02:15;96734.82;;;19.43;19.92
69689;BME280;56932;38.402;-96.176;2023-01-15T11:04:31;96734.45;;;18.90;20.50
69689;BME280;56932;38.402;-96.176;2023-01-15T11:06:57;96726.10;;;18.40;20.83
69689;BME280;56932;38.402;-96.176;2023-01-15T11:09:24;96723.11;;;18.64;20.84
69689;BME280;56932;38.402;-96.176;2023-01-15T11:11:49;96714.81;;;19.07;20.57
69689;BME280;56932;38.402;-96.176;2023-01-15T11:14:13;96711.86;;;19.30;20.43
69689;BME280;56932;38.402;-96.176;2023-01-15T11:16:39;96718.81;;;19.48;20.19
69689;BME280;56932;38.402;-96.176;2023-01-15T11:19:05;96710.86;;;19.38;20.18
69689;BME280;56932;38.402;-96.176;2023-01-15T11:21:30;96707.80;;;19.09;20.79
69689;BME280;56932;38.402;-96.176;2023-01-15T11:23:56;96704.78;;;19.00;20.52
69689;BME280;56932;38.402;-96.176;2023-01-15T11:26:22;96702.32;;;19.20;20.48
69689;BME280;56932;38.402;-96.176;2023-01-15T11:28:47;96704.50;;;19.06;20.67
69689;BME280;56932;38.402;-96.176;2023-01-15T11:31:12;96705.70;;;19.58;20.50
69689;BME280;56932;38.402;-96.176;2023-01-15T11:33:37;96702.92;;;19.53;20.36
69689;BME280;56932;38.402;-96.176;2023-01-15T11:36:05;96701.03;;;19.57;20.38
69689;BME280;56932;38.402;-96.176;2023-01-15T11:38:30;96695.45;;;19.47;20.38
69689;BME280;56932;38.402;-96.176;2023-01-15T11:40:55;96700.58;;;19.91;19.94
69689;BME280;56932;38.402;-96.176;2023-01-15T11:43:21;96703.61;;;19.55;20.43
69689;BME280;56932;38.402;-96.176;2023-01-15T11:45:47;96699.98;;;20.44;19.78
69689;BME280;56932;38.402;-96.176;2023-01-15T11:48:15;96705.80;;;20.43;19.74
69689;BME280;56932;38.402;-96.176;2023-01-15T11:50:40;96718.45;;;20.48;19.55
69689;BME280;56932;38.402;-96.176;2023-01-15T11:53:01;96713.55;;;20.10;19.81
69689;BME280;56932;38.402;-96.176;2023-01-15T11:55:28;96718.70;;;20.72;19.52
69689;BME280;56932;38.402;-96.176;2023-01-15T11:57:53;96725.33;;;20.31;19.49
69689;BME280;56932;38.402;-96.176;2023-01-15T12:00:20;96717.60;;;20.09;20.00
69689;BME280;56932;38.402;-96.176;2023-01-15T12:02:43;96712.29;;;20.33;19.68
69689;BME280;56932;38.402;-96.176;2023-01-15T12:05:15;96717.81;;;20.41;19.60
69689;BME280;56932;38.402;-96.176;2023-01-15T12:07:38;96713.22;;;20.40;19.58
69689;BME280;56932;38.402;-96.176;2023-01-15T12:10:08;96711.90;;;21.27;19.10
69689;BME280;56932;38.402;-96.176;2023-01-15T12:12:33;96696.50;;;20.49;19.48
69689;BME280;56932;38.402;-96.176;2023-01-15T12:15:01;96688.83;;;20.60;19.22
69689;BME280;56932;38.402;-96.176;2023-01-15T12:17:30;96686.31;;;20.85;19.02
69689;BME280;56932;38.402;-96.176;2023-01-15T12:19:48;96683.77;;;21.30;19.00
69689;BME280;56932;38.402;-96.176;2023-01-15T12:22:21;96683.58;;;21.22;18.83
69689;BME280;56932;38.402;-96.176;2023-01-15T12:24:41;96683.94;;;20.69;19.16
69689;BME280;56932;38.402;-96.176;2023-01-15T12:29:26;96683.96;;;20.88;19.02
69689;BME280;56932;38.402;-96.176;2023-01-15T12:31:53;96683.35;;;20.62;19.03
69689;BME280;56932;38.402;-96.176;2023-01-15T12:34:20;96683.70;;;20.79;19.25
69689;BME280;56932;38.402;-96.176;2023-01-15T12:36:44;96682.60;;;21.15;18.97